createdAt,value
2019-02-12T00:00:49.871Z,3.53
2019-02-12T00:05:53.809Z,2.60
2019-02-12T00:10:55.691Z,2.20
2019-02-12T00:15:57.992Z,2.23
2019-02-12T00:20:59.984Z,2.40
2019-02-12T00:26:01.867Z,2.40
2019-02-12T00:31:03.965Z,1.83
2019-02-12T00:36:07.803Z,2.03
2019-02-12T00:41:09.684Z,2.17
2019-02-12T00:46:12.797Z,2.30
2019-02-12T00:51:17.761Z,2.47
2019-02-12T00:56:18.570Z,2.00
2019-02-12T01:01:20.574Z,2.40
2019-02-12T01:06:22.839Z,2.37
2019-02-12T01:11:24.733Z,2.10
2019-02-12T01:16:27.839Z,1.67
2019-02-12T01:21:29.819Z,1.93
2019-02-12T01:26:33.334Z,2.03
2019-02-12T01:31:35.349Z,2.17
2019-02-12T01:36:37.303Z,1.97
2019-02-12T01:41:39.189Z,2.37
2019-02-12T01:46:41.362Z,2.43
2019-02-12T01:51:45.172Z,2.30
2019-02-12T01:56:47.060Z,2.13
2019-02-12T02:01:49.125Z,1.90
2019-02-12T02:06:51.079Z,1.70
2019-02-12T02:11:52.970Z,1.80
2019-02-12T02:16:54.888Z,1.70
2019-02-12T02:21:56.788Z,1.47
2019-02-12T02:26:58.858Z,2.13
2019-02-12T02:32:00.874Z,1.63
2019-02-12T02:37:02.840Z,1.50
2019-02-12T02:42:04.726Z,2.00
2019-02-12T02:47:06.764Z,1.63
2019-02-12T02:52:08.651Z,1.67
2019-02-12T02:57:10.532Z,1.47
2019-02-12T03:02:13.359Z,1.90
2019-02-12T03:07:15.297Z,2.10
2019-02-12T03:12:17.380Z,1.53
2019-02-12T03:17:19.301Z,1.53
2019-02-12T03:22:21.480Z,1.87
2019-02-12T03:27:23.363Z,1.80
2019-02-12T03:32:25.272Z,1.63
2019-02-12T03:37:27.248Z,1.33
2019-02-12T03:42:29.328Z,2.40
2019-02-12T03:47:31.299Z,1.70
2019-02-12T03:52:33.240Z,1.67
2019-02-12T03:57:36.345Z,1.60
2019-02-12T04:03:03.191Z,1.60
2019-02-12T04:08:05.923Z,1.50
2019-02-12T04:13:07.812Z,1.93
2019-02-12T04:18:09.750Z,2.00
2019-02-12T04:23:12.354Z,1.53
2019-02-12T04:28:16.051Z,2.13
2019-02-12T04:33:18.014Z,1.50
2019-02-12T04:38:20.110Z,1.40
2019-02-12T04:43:21.997Z,1.70
2019-02-12T04:48:23.901Z,1.90
2019-02-12T04:53:25.815Z,1.53
2019-02-12T04:58:27.721Z,2.03
2019-02-12T05:03:29.723Z,1.73
2019-02-12T05:09:10.855Z,1.80
2019-02-12T05:14:12.762Z,1.60
2019-02-12T05:19:15.168Z,1.60
2019-02-12T05:24:17.047Z,1.90
2019-02-12T05:29:18.953Z,1.70
2019-02-12T05:34:20.994Z,1.93
2019-02-12T05:39:22.906Z,1.90
2019-02-12T05:44:24.748Z,1.90
2019-02-12T05:49:26.712Z,1.80
2019-02-12T05:54:28.607Z,2.00
2019-02-12T05:59:30.600Z,2.50
2019-02-12T06:04:32.508Z,2.30
2019-02-12T06:09:34.616Z,2.50
2019-02-12T06:14:36.513Z,2.20
2019-02-12T06:19:38.462Z,2.00
2019-02-12T06:24:40.467Z,2.07
2019-02-12T06:29:42.412Z,2.47
2019-02-12T06:34:44.346Z,2.30
2019-02-12T06:39:46.297Z,2.03
2019-02-12T06:44:48.210Z,2.27
2019-02-12T06:49:50.171Z,2.23
2019-02-12T06:54:52.055Z,2.40
2019-02-12T06:59:53.971Z,2.33
2019-02-12T07:04:55.878Z,2.20
2019-02-12T07:10:19.519Z,3.37
2019-02-12T07:15:40.978Z,3.00
2019-02-12T07:21:08.437Z,3.10
2019-02-12T07:27:06.928Z,3.20
2019-02-12T07:32:34.197Z,3.67
2019-02-12T07:38:18.712Z,3.70
2019-02-12T07:44:04.971Z,3.70
2019-02-12T07:50:00.431Z,3.13
2019-02-12T07:55:44.485Z,3.40
2019-02-12T08:01:20.647Z,3.53
2019-02-12T08:06:32.481Z,4.20
2019-02-12T08:11:42.849Z,3.87
2019-02-12T08:17:21.206Z,4.10
2019-02-12T08:22:59.302Z,3.60
2019-02-12T08:28:17.986Z,3.90
2019-02-12T08:33:52.229Z,2.83
2019-02-12T08:39:04.304Z,2.70
2019-02-12T08:44:33.543Z,2.90
2019-02-12T08:56:09.102Z,2.60
2019-02-12T09:02:05.247Z,2.33
2019-02-12T09:07:27.257Z,2.40
2019-02-12T09:12:43.646Z,2.60
2019-02-12T09:18:01.034Z,2.10
2019-02-12T09:23:45.064Z,2.27
2019-02-12T09:28:57.175Z,3.10
2019-02-12T09:34:45.152Z,2.53
2019-02-12T09:40:19.120Z,2.43
2019-02-12T09:45:51.335Z,2.50
2019-02-12T09:51:26.730Z,3.70
2019-02-12T09:57:05.852Z,2.97
2019-02-12T10:02:22.870Z,2.60
2019-02-12T10:07:38.258Z,2.87
2019-02-12T10:13:02.167Z,3.47
2019-02-12T10:18:13.137Z,3.67
2019-02-12T10:24:03.399Z,2.23
2019-02-12T10:29:30.891Z,3.47
2019-02-12T10:34:32.808Z,2.90
2019-02-12T10:39:34.755Z,2.13
2019-02-12T10:44:36.971Z,2.43
2019-02-12T10:49:38.893Z,2.77
2019-02-12T10:54:40.815Z,2.63
2019-02-12T10:59:42.725Z,3.50
2019-02-12T11:04:44.717Z,3.43
2019-02-12T11:09:47.852Z,3.40
2019-02-12T11:14:49.775Z,3.00
2019-02-12T11:19:51.731Z,3.60
2019-02-12T11:24:53.694Z,2.83
2019-02-12T11:29:55.693Z,4.27
2019-02-12T11:34:57.694Z,3.13
2019-02-12T11:39:59.623Z,3.57
2019-02-12T11:45:01.645Z,4.10
2019-02-12T11:50:03.813Z,4.07
2019-02-12T11:55:06.827Z,4.63
2019-02-12T12:00:10.345Z,4.00
2019-02-12T12:05:12.472Z,2.83
2019-02-12T12:10:14.799Z,3.13
2019-02-12T12:15:16.685Z,2.77
2019-02-12T12:20:18.651Z,2.57
2019-02-12T12:25:20.813Z,2.83
2019-02-12T12:30:22.776Z,2.40
2019-02-12T12:35:24.796Z,2.70
2019-02-12T12:40:26.752Z,2.80
2019-02-12T12:45:28.646Z,3.10
2019-02-12T12:50:30.552Z,2.37
2019-02-12T12:55:32.515Z,2.37
2019-02-12T13:00:34.731Z,3.03
2019-02-12T13:05:36.872Z,2.70
2019-02-12T13:10:39.021Z,1.90
2019-02-12T13:15:41.156Z,2.07
2019-02-12T13:20:43.182Z,1.90
2019-02-12T13:25:45.127Z,2.03
2019-02-12T13:30:47.052Z,2.07
2019-02-12T13:35:49.159Z,1.80
2019-02-12T13:40:51.078Z,2.20
2019-02-12T13:45:53.971Z,2.30
2019-02-12T13:50:55.893Z,2.13
2019-02-12T13:55:57.833Z,2.50
2019-02-12T14:00:59.749Z,2.67
2019-02-12T14:06:01.714Z,2.03
2019-02-12T14:11:03.700Z,2.20
2019-02-12T14:16:05.615Z,2.43
2019-02-12T14:21:08.127Z,2.60
2019-02-12T14:26:11.163Z,2.00
2019-02-12T14:31:13.290Z,3.30
2019-02-12T14:36:15.283Z,2.63
2019-02-12T14:41:17.244Z,2.63
2019-02-12T14:46:19.417Z,2.97
2019-02-12T14:51:21.322Z,2.40
2019-02-12T14:56:24.313Z,2.57
2019-02-12T15:01:26.601Z,2.83
2019-02-12T15:06:28.520Z,1.93
2019-02-12T15:11:30.638Z,2.50
2019-02-12T15:16:32.585Z,2.63
2019-02-12T15:21:34.483Z,2.23
2019-02-12T15:26:36.579Z,19.70
2019-02-12T15:31:39.719Z,2.07
2019-02-12T15:36:41.783Z,2.13
2019-02-12T15:41:43.695Z,2.47
2019-02-12T15:46:45.754Z,2.27
2019-02-12T15:51:48.954Z,2.40
2019-02-12T15:56:51.101Z,2.10
2019-02-12T16:01:53.000Z,2.20
2019-02-12T16:06:55.116Z,2.33
2019-02-12T16:11:57.102Z,2.87
2019-02-12T16:16:59.024Z,2.37
2019-02-12T16:22:01.110Z,2.87
2019-02-12T16:27:03.001Z,2.70
2019-02-12T16:32:04.889Z,3.47
2019-02-12T16:37:07.425Z,2.90
2019-02-12T16:42:09.326Z,3.33
2019-02-12T16:47:11.457Z,2.93
2019-02-12T16:52:20.692Z,3.37
2019-02-12T16:57:17.510Z,2.93
2019-02-12T17:02:19.393Z,3.87
2019-02-12T17:07:22.466Z,9.37
2019-02-12T17:12:24.337Z,3.73
2019-02-12T17:17:26.464Z,2.90
2019-02-12T17:22:28.412Z,3.73
2019-02-12T17:27:30.362Z,3.63
2019-02-12T17:32:32.813Z,3.90
2019-02-12T17:37:34.782Z,4.00
2019-02-12T17:42:36.943Z,3.60
2019-02-12T17:47:39.053Z,3.37
2019-02-12T17:52:41.166Z,3.83
2019-02-12T17:57:43.143Z,3.40
2019-02-12T18:02:45.088Z,3.60
2019-02-12T18:07:47.001Z,3.60
2019-02-12T18:12:48.898Z,3.93
2019-02-12T18:17:50.841Z,3.00
2019-02-12T18:22:52.811Z,2.40
2019-02-12T18:27:54.753Z,2.80
2019-02-12T18:32:56.656Z,3.53
2019-02-12T18:37:58.616Z,3.73
2019-02-12T18:43:00.515Z,3.73
2019-02-12T18:48:02.577Z,3.50
2019-02-12T18:53:04.620Z,3.43
2019-02-12T18:58:06.662Z,4.10
2019-02-12T19:03:08.702Z,3.37
2019-02-12T19:08:10.813Z,3.87
2019-02-12T19:13:12.701Z,3.77
2019-02-12T19:18:18.034Z,3.53
2019-02-12T19:23:21.056Z,3.70
2019-02-12T19:28:23.580Z,3.37
2019-02-12T19:33:25.613Z,4.13
2019-02-12T19:38:27.536Z,4.07
2019-02-12T19:43:31.564Z,4.57
2019-02-12T19:48:33.510Z,4.80
2019-02-12T19:53:36.425Z,4.87
2019-02-12T19:58:38.329Z,4.53
2019-02-12T20:03:41.321Z,4.60
2019-02-12T20:08:43.237Z,5.33
2019-02-12T20:13:45.183Z,5.07
2019-02-12T20:18:47.100Z,6.30
2019-02-12T20:23:49.006Z,6.17
2019-02-12T20:28:51.004Z,6.27
2019-02-12T20:33:57.170Z,5.03
2019-02-12T20:38:56.787Z,4.77
2019-02-12T20:43:58.953Z,24.10
2019-02-12T20:49:00.901Z,4.37
2019-02-12T20:54:02.892Z,4.77
2019-02-12T20:59:04.981Z,6.63
2019-02-12T21:04:06.987Z,6.33
2019-02-12T21:09:08.906Z,5.23
2019-02-12T21:14:10.827Z,4.50
2019-02-12T21:19:12.873Z,5.00
2019-02-12T21:24:15.991Z,4.37
2019-02-12T21:29:17.936Z,4.63
2019-02-12T21:34:20.148Z,5.27
2019-02-12T21:39:23.453Z,5.37
2019-02-12T21:44:25.356Z,5.43
2019-02-12T21:49:27.398Z,5.53
2019-02-12T21:54:29.432Z,5.70
2019-02-12T21:59:31.333Z,6.10
2019-02-12T22:04:33.217Z,5.53
2019-02-12T22:09:35.128Z,6.17
2019-02-12T22:14:37.146Z,6.47
2019-02-12T22:19:39.089Z,6.57
2019-02-12T22:24:41.324Z,7.70
2019-02-12T22:29:43.243Z,8.93
2019-02-12T22:34:45.275Z,8.87
2019-02-12T22:39:47.213Z,10.13
2019-02-12T22:44:49.241Z,10.27
2019-02-12T22:49:51.773Z,11.00
2019-02-12T22:54:53.683Z,11.37
2019-02-12T22:59:55.721Z,11.33
2019-02-12T23:04:57.842Z,12.70
2019-02-12T23:10:01.172Z,13.57
2019-02-12T23:15:05.426Z,12.80
2019-02-12T23:20:08.025Z,12.17
2019-02-12T23:25:10.135Z,11.90
2019-02-12T23:30:12.155Z,12.87
2019-02-12T23:35:14.187Z,12.67
2019-02-12T23:40:16.702Z,13.37
2019-02-12T23:45:18.699Z,12.00
2019-02-12T23:50:20.708Z,13.77
2019-02-12T23:55:25.279Z,13.63
